Airfield :
LOGIN :

Register | Disclaimer

   EN    FR    IT 

 










Legend :    VFR   Marginal VFR   IFR   Intensive IFR   Very Intensive IFR
Visi :
Ceiling :
>= 8 km
>= 3000ft
5 to 8 km
1000 to 3000 ft
1500m to 5 km
500 to 1000 ft
800 to 1500m
200 to 500 ft
< 800m
< 200 ft
Symbols :   Thunderstorms  Fog  Heavy snow  Heavy precipitations  Wind > 20 kt
SIGMETs :     Misc.  Thunderstorms  Icing  Turbulence  Mountain Waves  Volcanic Ashes







- Airport Elevation : 1768 ft


LEHC - Huesca Pirineos

CURRENT METAR :
  • 152300Z AUTO 03002KT 9999 FEW068 13/12 Q1013

EXPIRED METARs :
  • 152230Z AUTO VRB01KT CAVOK 13/12 Q1013
  • 152200Z AUTO VRB01KT 9999 SCT065 13/12 Q1013
  • 152130Z AUTO VRB01KT 9999 BKN060 13/12 Q1012
  • 152100Z AUTO VRB02KT 9999 FEW060 12/11 Q1012
  • 152030Z AUTO VRB02KT 9999 NCD 13/11 Q1011

TAF TAF LEHC
Valid from the 15 at 09:00 until the 16 at 09:00 UTC


150800Z 1509/1609 27007KT 9999 SCT035 TX19/1515Z TN12/1606Z
PROB40
TEMPO 1509/1512 RA BKN030
BECMG 1518/1520 VRB03KT
TEMPO 1520/1609 0200 BCFG BKN010
No reported NOTAMs for that airfield.



MET'MAP, your aeronautical weather chart ! - Copyright ORBIFLY December 2007 - Disclaimer

ORBIFLY MET'MAP TEAM :

Programming & Development : Alexandra Zaïnal
Concept & Development : Baudouin d'Aumeries
Co-Development & Prog : Marc-Olivier Méhu
Technical & hardware support : Manuel Goepfert

Contact : metmap@orbifly.com




SOURCES & CREDITS :

   NOAA